sensor_id;sensor_type;location;lat;lon;timestamp;P1;durP1;ratioP1;P2;durP2;ratioP2
19207;SDS011;9737;59.466;18.036;2023-04-01T00:00:33;21.53;;;10.30;;
19207;SDS011;9737;59.466;18.036;2023-04-01T00:03:01;26.53;;;13.53;;
19207;SDS011;9737;59.466;18.036;2023-04-01T00:05:29;34.63;;;17.20;;
19207;SDS011;9737;59.466;18.036;2023-04-01T00:07:57;35.03;;;17.10;;
19207;SDS011;9737;59.466;18.036;2023-04-01T00:10:25;19.07;;;11.03;;
19207;SDS011;9737;59.466;18.036;2023-04-01T00:12:53;16.30;;;8.70;;
19207;SDS011;9737;59.466;18.036;2023-04-01T00:15:22;19.63;;;11.53;;
19207;SDS011;9737;59.466;18.036;2023-04-01T00:17:50;16.13;;;9.50;;
19207;SDS011;9737;59.466;18.036;2023-04-01T00:20:19;15.40;;;8.17;;
19207;SDS011;9737;59.466;18.036;2023-04-01T00:22:47;20.13;;;7.63;;
19207;SDS011;9737;59.466;18.036;2023-04-01T00:25:16;10.50;;;6.60;;
19207;SDS011;9737;59.466;18.036;2023-04-01T00:27:44;12.87;;;8.10;;
19207;SDS011;9737;59.466;18.036;2023-04-01T00:30:13;16.77;;;9.73;;
19207;SDS011;9737;59.466;18.036;2023-04-01T00:32:43;16.97;;;9.13;;
19207;SDS011;9737;59.466;18.036;2023-04-01T00:35:11;17.50;;;8.60;;
19207;SDS011;9737;59.466;18.036;2023-04-01T00:37:39;10.70;;;6.40;;
19207;SDS011;9737;59.466;18.036;2023-04-01T00:40:08;8.97;;;5.43;;
19207;SDS011;9737;59.466;18.036;2023-04-01T00:42:48;8.63;;;4.80;;
19207;SDS011;9737;59.466;18.036;2023-04-01T00:45:27;7.37;;;4.87;;
19207;SDS011;9737;59.466;18.036;2023-04-01T00:47:59;10.63;;;4.83;;
19207;SDS011;9737;59.466;18.036;2023-04-01T00:50:31;19.30;;;5.53;;
19207;SDS011;9737;59.466;18.036;2023-04-01T00:53:02;19.97;;;4.70;;
19207;SDS011;9737;59.466;18.036;2023-04-01T00:55:32;9.53;;;4.87;;
19207;SDS011;9737;59.466;18.036;2023-04-01T00:58:03;9.23;;;4.60;;
19207;SDS011;9737;59.466;18.036;2023-04-01T01:00:34;10.67;;;5.93;;
19207;SDS011;9737;59.466;18.036;2023-04-01T01:03:05;10.97;;;5.60;;
19207;SDS011;9737;59.466;18.036;2023-04-01T01:05:37;10.10;;;6.00;;
19207;SDS011;9737;59.466;18.036;2023-04-01T01:08:15;11.73;;;5.87;;
19207;SDS011;9737;59.466;18.036;2023-04-01T01:10:51;9.80;;;6.10;;
19207;SDS011;9737;59.466;18.036;2023-04-01T01:13:21;11.97;;;6.70;;
19207;SDS011;9737;59.466;18.036;2023-04-01T01:15:59;10.90;;;6.13;;
19207;SDS011;9737;59.466;18.036;2023-04-01T01:18:34;11.10;;;5.60;;
19207;SDS011;9737;59.466;18.036;2023-04-01T01:21:12;12.43;;;6.40;;
19207;SDS011;9737;59.466;18.036;2023-04-01T01:23:57;14.53;;;6.20;;
19207;SDS011;9737;59.466;18.036;2023-04-01T01:26:46;24.87;;;8.57;;
19207;SDS011;9737;59.466;18.036;2023-04-01T01:29:30;46.50;;;15.63;;
19207;SDS011;9737;59.466;18.036;2023-04-01T01:32:33;91.73;;;22.93;;
19207;SDS011;9737;59.466;18.036;2023-04-01T01:35:15;57.63;;;16.13;;
19207;SDS011;9737;59.466;18.036;2023-04-01T01:37:49;32.70;;;11.47;;
19207;SDS011;9737;59.466;18.036;2023-04-01T01:40:21;19.63;;;8.23;;
19207;SDS011;9737;59.466;18.036;2023-04-01T01:42:50;16.67;;;7.30;;
19207;SDS011;9737;59.466;18.036;2023-04-01T01:45:23;15.63;;;7.67;;
19207;SDS011;9737;59.466;18.036;2023-04-01T01:47:53;12.73;;;7.23;;
19207;SDS011;9737;59.466;18.036;2023-04-01T01:50:26;15.30;;;6.17;;
19207;SDS011;9737;59.466;18.036;2023-04-01T01:53:01;11.67;;;5.90;;
19207;SDS011;9737;59.466;18.036;2023-04-01T01:55:31;10.17;;;5.80;;
19207;SDS011;9737;59.466;18.036;2023-04-01T01:58:02;14.60;;;6.07;;
19207;SDS011;9737;59.466;18.036;2023-04-01T02:00:33;12.47;;;6.23;;
19207;SDS011;9737;59.466;18.036;2023-04-01T02:03:02;11.30;;;6.40;;
19207;SDS011;9737;59.466;18.036;2023-04-01T02:05:33;13.70;;;6.00;;
19207;SDS011;9737;59.466;18.036;2023-04-01T02:08:03;14.23;;;5.73;;
19207;SDS011;9737;59.466;18.036;2023-04-01T02:10:36;11.90;;;6.07;;
19207;SDS011;9737;59.466;18.036;2023-04-01T02:13:08;19.30;;;8.40;;
19207;SDS011;9737;59.466;18.036;2023-04-01T02:15:42;30.83;;;12.43;;
19207;SDS011;9737;59.466;18.036;2023-04-01T02:18:15;22.97;;;11.63;;
19207;SDS011;9737;59.466;18.036;2023-04-01T02:20:47;23.53;;;10.87;;
19207;SDS011;9737;59.466;18.036;2023-04-01T02:23:16;16.27;;;9.20;;
19207;SDS011;9737;59.466;18.036;2023-04-01T02:25:44;18.03;;;10.73;;
19207;SDS011;9737;59.466;18.036;2023-04-01T02:28:13;13.53;;;7.10;;
19207;SDS011;9737;59.466;18.036;2023-04-01T02:30:46;11.33;;;6.57;;
19207;SDS011;9737;59.466;18.036;2023-04-01T02:33:17;18.13;;;9.30;;
19207;SDS011;9737;59.466;18.036;2023-04-01T02:35:48;21.00;;;10.07;;
19207;SDS011;9737;59.466;18.036;2023-04-01T02:38:16;23.07;;;11.47;;
19207;SDS011;9737;59.466;18.036;2023-04-01T02:40:46;18.13;;;10.00;;
19207;SDS011;9737;59.466;18.036;2023-04-01T02:43:15;14.37;;;8.40;;
19207;SDS011;9737;59.466;18.036;2023-04-01T02:45:43;15.00;;;7.43;;
19207;SDS011;9737;59.466;18.036;2023-04-01T02:50:40;12.10;;;6.77;;
19207;SDS011;9737;59.466;18.036;2023-04-01T02:53:10;9.87;;;6.83;;
19207;SDS011;9737;59.466;18.036;2023-04-01T02:55:38;12.70;;;5.50;;
19207;SDS011;9737;59.466;18.036;2023-04-01T02:58:06;19.33;;;6.30;;
19207;SDS011;9737;59.466;18.036;2023-04-01T03:00:34;11.10;;;5.97;;
19207;SDS011;9737;59.466;18.036;2023-04-01T03:03:02;12.43;;;5.87;;
19207;SDS011;9737;59.466;18.036;2023-04-01T03:05:31;10.97;;;6.03;;
19207;SDS011;9737;59.466;18.036;2023-04-01T03:07:59;8.43;;;5.63;;
19207;SDS011;9737;59.466;18.036;2023-04-01T03:10:29;10.30;;;5.70;;
19207;SDS011;9737;59.466;18.036;2023-04-01T03:12:57;10.77;;;6.00;;
19207;SDS011;9737;59.466;18.036;2023-04-01T03:15:25;9.80;;;5.27;;
19207;SDS011;9737;59.466;18.036;2023-04-01T03:17:53;11.93;;;6.20;;
19207;SDS011;9737;59.466;18.036;2023-04-01T03:20:21;9.70;;;5.80;;
19207;SDS011;9737;59.466;18.036;2023-04-01T03:22:49;12.77;;;5.80;;
19207;SDS011;9737;59.466;18.036;2023-04-01T03:25:17;8.57;;;5.33;;
19207;SDS011;9737;59.466;18.036;2023-04-01T03:27:47;11.73;;;5.73;;
19207;SDS011;9737;59.466;18.036;2023-04-01T03:30:15;10.80;;;5.57;;
19207;SDS011;9737;59.466;18.036;2023-04-01T03:32:44;10.13;;;5.90;;
19207;SDS011;9737;59.466;18.036;2023-04-01T03:35:12;11.30;;;6.17;;
19207;SDS011;9737;59.466;18.036;2023-04-01T03:37:40;10.03;;;5.37;;
19207;SDS011;9737;59.466;18.036;2023-04-01T03:40:09;10.27;;;5.40;;
19207;SDS011;9737;59.466;18.036;2023-04-01T03:42:38;10.27;;;5.60;;
19207;SDS011;9737;59.466;18.036;2023-04-01T03:45:08;9.67;;;5.30;;
19207;SDS011;9737;59.466;18.036;2023-04-01T03:47:36;8.27;;;5.20;;
19207;SDS011;9737;59.466;18.036;2023-04-01T03:50:07;9.83;;;5.40;;
19207;SDS011;9737;59.466;18.036;2023-04-01T03:52:37;9.70;;;5.53;;
19207;SDS011;9737;59.466;18.036;2023-04-01T03:55:05;7.40;;;5.23;;
19207;SDS011;9737;59.466;18.036;2023-04-01T03:57:34;12.00;;;5.60;;
19207;SDS011;9737;59.466;18.036;2023-04-01T04:00:02;9.27;;;5.20;;
19207;SDS011;9737;59.466;18.036;2023-04-01T04:02:32;7.57;;;4.83;;
19207;SDS011;9737;59.466;18.036;2023-04-01T04:05:00;8.23;;;4.87;;
19207;SDS011;9737;59.466;18.036;2023-04-01T04:07:28;6.70;;;4.90;;
19207;SDS011;9737;59.466;18.036;2023-04-01T04:09:56;8.27;;;5.33;;
19207;SDS011;9737;59.466;18.036;2023-04-01T04:12:24;10.00;;;5.83;;
19207;SDS011;9737;59.466;18.036;2023-04-01T04:14:52;7.83;;;4.90;;
19207;SDS011;9737;59.466;18.036;2023-04-01T04:17:21;9.00;;;5.27;;
19207;SDS011;9737;59.466;18.036;2023-04-01T04:19:54;8.93;;;5.23;;
19207;SDS011;9737;59.466;18.036;2023-04-01T04:22:22;10.03;;;5.13;;
19207;SDS011;9737;59.466;18.036;2023-04-01T04:24:50;11.93;;;5.23;;
19207;SDS011;9737;59.466;18.036;2023-04-01T04:27:18;7.93;;;4.97;;
19207;SDS011;9737;59.466;18.036;2023-04-01T04:29:47;9.70;;;5.03;;
19207;SDS011;9737;59.466;18.036;2023-04-01T04:32:15;6.70;;;4.90;;
19207;SDS011;9737;59.466;18.036;2023-04-01T04:34:43;8.30;;;5.40;;
19207;SDS011;9737;59.466;18.036;2023-04-01T04:37:13;6.90;;;4.63;;
19207;SDS011;9737;59.466;18.036;2023-04-01T04:39:41;6.30;;;4.73;;
19207;SDS011;9737;59.466;18.036;2023-04-01T04:42:09;15.80;;;4.90;;
19207;SDS011;9737;59.466;18.036;2023-04-01T04:44:37;9.73;;;4.50;;
19207;SDS011;9737;59.466;18.036;2023-04-01T04:47:07;8.50;;;4.90;;
19207;SDS011;9737;59.466;18.036;2023-04-01T04:49:36;8.37;;;5.13;;
19207;SDS011;9737;59.466;18.036;2023-04-01T04:52:04;11.77;;;4.87;;
19207;SDS011;9737;59.466;18.036;2023-04-01T04:54:33;13.00;;;5.03;;
19207;SDS011;9737;59.466;18.036;2023-04-01T04:57:02;8.97;;;5.17;;
19207;SDS011;9737;59.466;18.036;2023-04-01T04:59:30;9.07;;;4.83;;
19207;SDS011;9737;59.466;18.036;2023-04-01T05:01:58;8.50;;;5.13;;
19207;SDS011;9737;59.466;18.036;2023-04-01T05:04:27;9.43;;;5.03;;
19207;SDS011;9737;59.466;18.036;2023-04-01T05:06:55;8.67;;;5.00;;
19207;SDS011;9737;59.466;18.036;2023-04-01T05:09:23;8.90;;;4.67;;
19207;SDS011;9737;59.466;18.036;2023-04-01T05:11:52;9.63;;;5.10;;
19207;SDS011;9737;59.466;18.036;2023-04-01T05:14:20;10.67;;;5.23;;
19207;SDS011;9737;59.466;18.036;2023-04-01T05:16:48;10.50;;;5.10;;
19207;SDS011;9737;59.466;18.036;2023-04-01T05:19:17;8.90;;;5.77;;
19207;SDS011;9737;59.466;18.036;2023-04-01T05:21:45;10.20;;;5.33;;
19207;SDS011;9737;59.466;18.036;2023-04-01T05:24:13;14.80;;;6.23;;
19207;SDS011;9737;59.466;18.036;2023-04-01T05:26:40;17.73;;;7.60;;
19207;SDS011;9737;59.466;18.036;2023-04-01T05:29:10;16.40;;;7.57;;
19207;SDS011;9737;59.466;18.036;2023-04-01T05:31:38;16.80;;;7.93;;
19207;SDS011;9737;59.466;18.036;2023-04-01T05:34:06;9.73;;;5.30;;
19207;SDS011;9737;59.466;18.036;2023-04-01T05:36:34;8.87;;;4.80;;
19207;SDS011;9737;59.466;18.036;2023-04-01T05:39:03;7.77;;;4.53;;
19207;SDS011;9737;59.466;18.036;2023-04-01T05:44:52;15.47;;;6.60;;
19207;SDS011;9737;59.466;18.036;2023-04-01T05:47:24;8.93;;;5.00;;
19207;SDS011;9737;59.466;18.036;2023-04-01T05:49:52;10.50;;;4.68;;
19207;SDS011;9737;59.466;18.036;2023-04-01T05:52:21;8.77;;;4.30;;
19207;SDS011;9737;59.466;18.036;2023-04-01T05:54:51;11.50;;;3.92;;
19207;SDS011;9737;59.466;18.036;2023-04-01T05:57:21;11.60;;;4.57;;
19207;SDS011;9737;59.466;18.036;2023-04-01T05:59:50;9.38;;;4.40;;
19207;SDS011;9737;59.466;18.036;2023-04-01T06:02:19;7.70;;;4.63;;
19207;SDS011;9737;59.466;18.036;2023-04-01T06:04:47;12.18;;;4.22;;
19207;SDS011;9737;59.466;18.036;2023-04-01T06:07:16;7.75;;;3.50;;
19207;SDS011;9737;59.466;18.036;2023-04-01T06:09:45;7.03;;;3.60;;
19207;SDS011;9737;59.466;18.036;2023-04-01T06:12:17;5.43;;;3.22;;
19207;SDS011;9737;59.466;18.036;2023-04-01T06:15:02;4.30;;;3.10;;
19207;SDS011;9737;59.466;18.036;2023-04-01T06:17:46;5.20;;;3.20;;
19207;SDS011;9737;59.466;18.036;2023-04-01T06:20:34;5.97;;;3.25;;
19207;SDS011;9737;59.466;18.036;2023-04-01T06:23:20;7.43;;;2.75;;
19207;SDS011;9737;59.466;18.036;2023-04-01T06:26:09;2.90;;;2.50;;
19207;SDS011;9737;59.466;18.036;2023-04-01T06:28:48;2.60;;;2.40;;
19207;SDS011;9737;59.466;18.036;2023-04-01T06:31:30;3.63;;;2.60;;
19207;SDS011;9737;59.466;18.036;2023-04-01T06:34:19;6.43;;;2.85;;
19207;SDS011;9737;59.466;18.036;2023-04-01T06:37:15;5.55;;;2.95;;
19207;SDS011;9737;59.466;18.036;2023-04-01T06:40:03;5.38;;;2.58;;
19207;SDS011;9737;59.466;18.036;2023-04-01T06:42:49;5.10;;;2.83;;
19207;SDS011;9737;59.466;18.036;2023-04-01T06:45:32;3.88;;;2.83;;
19207;SDS011;9737;59.466;18.036;2023-04-01T06:48:12;5.57;;;2.85;;
19207;SDS011;9737;59.466;18.036;2023-04-01T06:51:01;4.90;;;2.80;;
19207;SDS011;9737;59.466;18.036;2023-04-01T06:53:35;9.25;;;2.70;;
19207;SDS011;9737;59.466;18.036;2023-04-01T06:56:10;4.00;;;2.60;;
19207;SDS011;9737;59.466;18.036;2023-04-01T06:58:42;4.53;;;2.65;;
19207;SDS011;9737;59.466;18.036;2023-04-01T07:01:14;3.50;;;2.40;;
19207;SDS011;9737;59.466;18.036;2023-04-01T07:03:49;4.15;;;2.70;;
19207;SDS011;9737;59.466;18.036;2023-04-01T07:06:25;3.45;;;2.47;;
19207;SDS011;9737;59.466;18.036;2023-04-01T07:08:56;4.28;;;2.67;;
19207;SDS011;9737;59.466;18.036;2023-04-01T07:11:33;3.72;;;2.70;;
19207;SDS011;9737;59.466;18.036;2023-04-01T07:14:04;5.60;;;2.58;;
19207;SDS011;9737;59.466;18.036;2023-04-01T07:16:39;3.13;;;2.40;;
19207;SDS011;9737;59.466;18.036;2023-04-01T07:19:12;6.43;;;2.42;;
19207;SDS011;9737;59.466;18.036;2023-04-01T07:21:48;5.97;;;2.40;;
19207;SDS011;9737;59.466;18.036;2023-04-01T07:24:20;2.55;;;2.30;;
19207;SDS011;9737;59.466;18.036;2023-04-01T07:26:52;4.00;;;2.70;;
19207;SDS011;9737;59.466;18.036;2023-04-01T07:29:22;2.63;;;2.35;;
19207;SDS011;9737;59.466;18.036;2023-04-01T07:32:06;3.28;;;2.50;;
19207;SDS011;9737;59.466;18.036;2023-04-01T07:34:47;3.65;;;2.30;;
19207;SDS011;9737;59.466;18.036;2023-04-01T07:37:27;8.13;;;2.28;;
19207;SDS011;9737;59.466;18.036;2023-04-01T07:40:02;4.38;;;2.00;;
19207;SDS011;9737;59.466;18.036;2023-04-01T07:42:44;4.82;;;2.55;;
19207;SDS011;9737;59.466;18.036;2023-04-01T07:45:26;8.25;;;2.60;;
19207;SDS011;9737;59.466;18.036;2023-04-01T07:48:06;2.20;;;2.00;;
19207;SDS011;9737;59.466;18.036;2023-04-01T07:50:46;5.43;;;2.15;;
19207;SDS011;9737;59.466;18.036;2023-04-01T07:53:25;4.10;;;2.40;;
19207;SDS011;9737;59.466;18.036;2023-04-01T07:56:03;7.65;;;2.70;;
19207;SDS011;9737;59.466;18.036;2023-04-01T07:58:40;6.90;;;2.92;;
19207;SDS011;9737;59.466;18.036;2023-04-01T08:01:21;3.35;;;2.00;;
19207;SDS011;9737;59.466;18.036;2023-04-01T08:04:07;4.35;;;2.20;;
19207;SDS011;9737;59.466;18.036;2023-04-01T08:06:50;7.32;;;2.10;;
19207;SDS011;9737;59.466;18.036;2023-04-01T08:09:27;4.80;;;2.10;;
19207;SDS011;9737;59.466;18.036;2023-04-01T08:12:08;5.15;;;2.10;;
19207;SDS011;9737;59.466;18.036;2023-04-01T08:14:48;5.10;;;2.00;;
19207;SDS011;9737;59.466;18.036;2023-04-01T08:17:26;5.20;;;1.92;;
19207;SDS011;9737;59.466;18.036;2023-04-01T08:20:03;4.38;;;2.03;;
19207;SDS011;9737;59.466;18.036;2023-04-01T08:22:40;4.43;;;1.70;;
19207;SDS011;9737;59.466;18.036;2023-04-01T08:25:13;2.65;;;1.73;;
19207;SDS011;9737;59.466;18.036;2023-04-01T08:27:49;5.15;;;1.85;;
19207;SDS011;9737;59.466;18.036;2023-04-01T08:30:21;4.53;;;1.98;;
19207;SDS011;9737;59.466;18.036;2023-04-01T08:32:52;2.13;;;1.35;;
19207;SDS011;9737;59.466;18.036;2023-04-01T08:35:26;2.33;;;1.48;;
19207;SDS011;9737;59.466;18.036;2023-04-01T08:38:01;7.43;;;1.50;;
19207;SDS011;9737;59.466;18.036;2023-04-01T08:40:39;4.97;;;1.45;;
19207;SDS011;9737;59.466;18.036;2023-04-01T08:43:21;2.47;;;1.50;;
19207;SDS011;9737;59.466;18.036;2023-04-01T08:46:06;3.58;;;1.52;;
19207;SDS011;9737;59.466;18.036;2023-04-01T08:48:49;5.07;;;1.30;;
19207;SDS011;9737;59.466;18.036;2023-04-01T08:51:31;1.38;;;1.20;;
19207;SDS011;9737;59.466;18.036;2023-04-01T08:54:22;3.38;;;1.60;;
19207;SDS011;9737;59.466;18.036;2023-04-01T08:57:15;3.15;;;1.30;;
19207;SDS011;9737;59.466;18.036;2023-04-01T08:59:56;3.05;;;1.27;;
19207;SDS011;9737;59.466;18.036;2023-04-01T09:08:49;2.03;;;1.05;;
19207;SDS011;9737;59.466;18.036;2023-04-01T09:11:32;3.53;;;1.10;;
19207;SDS011;9737;59.466;18.036;2023-04-01T09:14:19;3.28;;;1.17;;
19207;SDS011;9737;59.466;18.036;2023-04-01T09:17:13;2.03;;;1.10;;
19207;SDS011;9737;59.466;18.036;2023-04-01T09:20:06;1.50;;;1.15;;
19207;SDS011;9737;59.466;18.036;2023-04-01T09:22:50;2.00;;;1.30;;
19207;SDS011;9737;59.466;18.036;2023-04-01T09:25:47;2.75;;;1.20;;
19207;SDS011;9737;59.466;18.036;2023-04-01T09:28:28;5.53;;;1.20;;
19207;SDS011;9737;59.466;18.036;2023-04-01T09:31:15;7.30;;;1.10;;
19207;SDS011;9737;59.466;18.036;2023-04-01T09:36:55;1.35;;;0.90;;
19207;SDS011;9737;59.466;18.036;2023-04-01T09:39:42;1.45;;;0.90;;
19207;SDS011;9737;59.466;18.036;2023-04-01T09:42:29;1.38;;;1.00;;
19207;SDS011;9737;59.466;18.036;2023-04-01T09:45:14;3.97;;;1.30;;
19207;SDS011;9737;59.466;18.036;2023-04-01T09:47:56;5.75;;;1.48;;
19207;SDS011;9737;59.466;18.036;2023-04-01T09:50:39;2.88;;;1.48;;
19207;SDS011;9737;59.466;18.036;2023-04-01T09:53:20;2.90;;;1.00;;
19207;SDS011;9737;59.466;18.036;2023-04-01T09:59:09;1.60;;;1.00;;
19207;SDS011;9737;59.466;18.036;2023-04-01T10:02:06;3.78;;;1.10;;
19207;SDS011;9737;59.466;18.036;2023-04-01T10:05:01;1.52;;;1.10;;
19207;SDS011;9737;59.466;18.036;2023-04-01T10:08:08;1.52;;;0.80;;
19207;SDS011;9737;59.466;18.036;2023-04-01T10:14:17;1.95;;;0.80;;
19207;SDS011;9737;59.466;18.036;2023-04-01T10:20:13;1.52;;;0.80;;
19207;SDS011;9737;59.466;18.036;2023-04-01T10:23:10;1.00;;;0.63;;
19207;SDS011;9737;59.466;18.036;2023-04-01T10:29:02;1.13;;;0.80;;
19207;SDS011;9737;59.466;18.036;2023-04-01T10:32:02;4.40;;;1.00;;
19207;SDS011;9737;59.466;18.036;2023-04-01T10:35:14;1.02;;;0.80;;
19207;SDS011;9737;59.466;18.036;2023-04-01T10:38:19;2.28;;;0.70;;
19207;SDS011;9737;59.466;18.036;2023-04-01T10:41:15;1.75;;;0.77;;
19207;SDS011;9737;59.466;18.036;2023-04-01T10:44:25;1.63;;;0.70;;
19207;SDS011;9737;59.466;18.036;2023-04-01T10:47:23;6.47;;;0.85;;
19207;SDS011;9737;59.466;18.036;2023-04-01T10:50:19;0.95;;;0.65;;
19207;SDS011;9737;59.466;18.036;2023-04-01T10:53:15;3.08;;;0.80;;
19207;SDS011;9737;59.466;18.036;2023-04-01T11:05:27;1.13;;;0.73;;
19207;SDS011;9737;59.466;18.036;2023-04-01T11:08:25;2.25;;;0.70;;
19207;SDS011;9737;59.466;18.036;2023-04-01T11:14:59;1.20;;;0.70;;
19207;SDS011;9737;59.466;18.036;2023-04-01T11:21:25;4.53;;;0.80;;
19207;SDS011;9737;59.466;18.036;2023-04-01T11:24:23;0.80;;;0.45;;
19207;SDS011;9737;59.466;18.036;2023-04-01T11:27:06;1.33;;;0.60;;
19207;SDS011;9737;59.466;18.036;2023-04-01T11:29:52;3.28;;;0.60;;
19207;SDS011;9737;59.466;18.036;2023-04-01T11:32:34;0.55;;;0.50;;
19207;SDS011;9737;59.466;18.036;2023-04-01T11:38:19;0.82;;;0.60;;
19207;SDS011;9737;59.466;18.036;2023-04-01T11:40:58;0.77;;;0.65;;
19207;SDS011;9737;59.466;18.036;2023-04-01T11:43:37;0.60;;;0.60;;
19207;SDS011;9737;59.466;18.036;2023-04-01T11:46:15;1.40;;;0.65;;
19207;SDS011;9737;59.466;18.036;2023-04-01T11:48:50;4.18;;;0.60;;
19207;SDS011;9737;59.466;18.036;2023-04-01T11:51:41;0.50;;;0.50;;
19207;SDS011;9737;59.466;18.036;2023-04-01T11:54:27;1.63;;;0.63;;
19207;SDS011;9737;59.466;18.036;2023-04-01T11:57:12;0.63;;;0.45;;
19207;SDS011;9737;59.466;18.036;2023-04-01T12:00:12;1.90;;;0.40;;
19207;SDS011;9737;59.466;18.036;2023-04-01T12:02:50;3.60;;;0.57;;
19207;SDS011;9737;59.466;18.036;2023-04-01T12:05:41;0.82;;;0.50;;
19207;SDS011;9737;59.466;18.036;2023-04-01T12:08:17;0.68;;;0.50;;
19207;SDS011;9737;59.466;18.036;2023-04-01T12:10:55;0.85;;;0.60;;
19207;SDS011;9737;59.466;18.036;2023-04-01T12:13:31;0.80;;;0.70;;
19207;SDS011;9737;59.466;18.036;2023-04-01T12:16:20;0.90;;;0.57;;
19207;SDS011;9737;59.466;18.036;2023-04-01T12:19:01;1.25;;;0.50;;
19207;SDS011;9737;59.466;18.036;2023-04-01T12:21:37;0.70;;;0.50;;
19207;SDS011;9737;59.466;18.036;2023-04-01T12:27:13;3.42;;;0.70;;
19207;SDS011;9737;59.466;18.036;2023-04-01T12:29:50;3.63;;;0.70;;
19207;SDS011;9737;59.466;18.036;2023-04-01T12:32:29;1.23;;;0.60;;
19207;SDS011;9737;59.466;18.036;2023-04-01T12:35:04;1.63;;;0.80;;
19207;SDS011;9737;59.466;18.036;2023-04-01T12:37:49;0.95;;;0.60;;
19207;SDS011;9737;59.466;18.036;2023-04-01T12:40:38;0.88;;;0.60;;
19207;SDS011;9737;59.466;18.036;2023-04-01T12:43:26;2.08;;;0.55;;
19207;SDS011;9737;59.466;18.036;2023-04-01T12:46:04;1.40;;;0.52;;
19207;SDS011;9737;59.466;18.036;2023-04-01T12:54:48;0.93;;;0.60;;
19207;SDS011;9737;59.466;18.036;2023-04-01T12:57:51;7.28;;;0.70;;
19207;SDS011;9737;59.466;18.036;2023-04-01T13:00:41;5.80;;;0.82;;
19207;SDS011;9737;59.466;18.036;2023-04-01T13:03:37;1.15;;;0.52;;
19207;SDS011;9737;59.466;18.036;2023-04-01T13:06:33;2.60;;;0.68;;
19207;SDS011;9737;59.466;18.036;2023-04-01T13:09:13;0.80;;;0.60;;
19207;SDS011;9737;59.466;18.036;2023-04-01T13:11:54;3.60;;;0.70;;
19207;SDS011;9737;59.466;18.036;2023-04-01T13:17:37;1.45;;;0.73;;
19207;SDS011;9737;59.466;18.036;2023-04-01T13:20:14;1.02;;;0.60;;
19207;SDS011;9737;59.466;18.036;2023-04-01T13:22:54;0.82;;;0.70;;
19207;SDS011;9737;59.466;18.036;2023-04-01T13:25:34;2.25;;;0.80;;
19207;SDS011;9737;59.466;18.036;2023-04-01T13:28:10;0.70;;;0.55;;
19207;SDS011;9737;59.466;18.036;2023-04-01T13:30:44;1.92;;;0.80;;
19207;SDS011;9737;59.466;18.036;2023-04-01T13:33:21;1.88;;;0.70;;
19207;SDS011;9737;59.466;18.036;2023-04-01T13:36:03;2.28;;;0.70;;
19207;SDS011;9737;59.466;18.036;2023-04-01T13:38:45;1.00;;;0.70;;
19207;SDS011;9737;59.466;18.036;2023-04-01T13:41:38;3.53;;;0.80;;
19207;SDS011;9737;59.466;18.036;2023-04-01T13:44:28;2.78;;;0.70;;
19207;SDS011;9737;59.466;18.036;2023-04-01T13:47:11;1.13;;;0.60;;
19207;SDS011;9737;59.466;18.036;2023-04-01T13:49:59;5.20;;;0.70;;
19207;SDS011;9737;59.466;18.036;2023-04-01T13:53:00;1.15;;;0.57;;
19207;SDS011;9737;59.466;18.036;2023-04-01T13:58:55;1.80;;;0.75;;
19207;SDS011;9737;59.466;18.036;2023-04-01T14:01:32;1.40;;;0.80;;
19207;SDS011;9737;59.466;18.036;2023-04-01T14:04:19;1.35;;;0.80;;
19207;SDS011;9737;59.466;18.036;2023-04-01T14:07:10;1.92;;;0.80;;
19207;SDS011;9737;59.466;18.036;2023-04-01T14:10:02;2.60;;;0.80;;
19207;SDS011;9737;59.466;18.036;2023-04-01T14:12:40;1.33;;;0.85;;
19207;SDS011;9737;59.466;18.036;2023-04-01T14:15:18;3.08;;;0.63;;
19207;SDS011;9737;59.466;18.036;2023-04-01T14:18:05;1.45;;;0.70;;
19207;SDS011;9737;59.466;18.036;2023-04-01T14:20:47;1.90;;;0.75;;
19207;SDS011;9737;59.466;18.036;2023-04-01T14:23:33;3.80;;;0.63;;
19207;SDS011;9737;59.466;18.036;2023-04-01T14:26:20;0.60;;;0.60;;
19207;SDS011;9737;59.466;18.036;2023-04-01T14:29:02;2.75;;;0.70;;
19207;SDS011;9737;59.466;18.036;2023-04-01T14:31:44;4.65;;;0.80;;
19207;SDS011;9737;59.466;18.036;2023-04-01T14:34:25;0.93;;;0.63;;
19207;SDS011;9737;59.466;18.036;2023-04-01T14:37:05;2.92;;;1.00;;
19207;SDS011;9737;59.466;18.036;2023-04-01T14:39:49;2.20;;;0.80;;
19207;SDS011;9737;59.466;18.036;2023-04-01T14:42:38;1.70;;;0.73;;
19207;SDS011;9737;59.466;18.036;2023-04-01T14:48:17;4.30;;;0.68;;
19207;SDS011;9737;59.466;18.036;2023-04-01T14:50:51;3.50;;;0.70;;
19207;SDS011;9737;59.466;18.036;2023-04-01T14:53:26;5.47;;;0.80;;
19207;SDS011;9737;59.466;18.036;2023-04-01T14:55:58;3.45;;;0.95;;
19207;SDS011;9737;59.466;18.036;2023-04-01T14:58:39;7.15;;;0.80;;
19207;SDS011;9737;59.466;18.036;2023-04-01T15:01:13;3.78;;;0.70;;
19207;SDS011;9737;59.466;18.036;2023-04-01T15:03:54;4.50;;;0.80;;
19207;SDS011;9737;59.466;18.036;2023-04-01T15:06:45;2.70;;;0.80;;
19207;SDS011;9737;59.466;18.036;2023-04-01T15:09:26;3.88;;;1.00;;
19207;SDS011;9737;59.466;18.036;2023-04-01T15:12:11;1.85;;;0.98;;
19207;SDS011;9737;59.466;18.036;2023-04-01T15:15:04;2.45;;;1.00;;
19207;SDS011;9737;59.466;18.036;2023-04-01T15:17:49;5.10;;;0.95;;
19207;SDS011;9737;59.466;18.036;2023-04-01T15:20:32;4.88;;;1.00;;
19207;SDS011;9737;59.466;18.036;2023-04-01T15:23:13;3.72;;;0.90;;
19207;SDS011;9737;59.466;18.036;2023-04-01T15:25:51;2.78;;;0.80;;
19207;SDS011;9737;59.466;18.036;2023-04-01T15:28:42;5.43;;;0.95;;
19207;SDS011;9737;59.466;18.036;2023-04-01T15:31:21;2.63;;;0.80;;
19207;SDS011;9737;59.466;18.036;2023-04-01T15:36:56;3.40;;;1.10;;
19207;SDS011;9737;59.466;18.036;2023-04-01T15:39:31;1.98;;;0.90;;
19207;SDS011;9737;59.466;18.036;2023-04-01T15:42:19;6.22;;;1.10;;
19207;SDS011;9737;59.466;18.036;2023-04-01T15:45:00;3.40;;;1.13;;
19207;SDS011;9737;59.466;18.036;2023-04-01T15:47:39;2.70;;;1.20;;
19207;SDS011;9737;59.466;18.036;2023-04-01T15:50:21;3.53;;;0.95;;
19207;SDS011;9737;59.466;18.036;2023-04-01T15:53:11;3.47;;;1.40;;
19207;SDS011;9737;59.466;18.036;2023-04-01T15:55:50;4.90;;;1.30;;
19207;SDS011;9737;59.466;18.036;2023-04-01T15:58:40;9.32;;;3.03;;
19207;SDS011;9737;59.466;18.036;2023-04-01T16:01:22;3.97;;;1.40;;
19207;SDS011;9737;59.466;18.036;2023-04-01T16:03:59;4.88;;;1.70;;
19207;SDS011;9737;59.466;18.036;2023-04-01T16:06:52;3.45;;;1.48;;
19207;SDS011;9737;59.466;18.036;2023-04-01T16:09:43;6.95;;;1.65;;
19207;SDS011;9737;59.466;18.036;2023-04-01T16:12:24;4.50;;;1.40;;
19207;SDS011;9737;59.466;18.036;2023-04-01T16:15:08;6.10;;;1.80;;
19207;SDS011;9737;59.466;18.036;2023-04-01T16:17:53;2.40;;;1.38;;
19207;SDS011;9737;59.466;18.036;2023-04-01T16:20:42;4.53;;;2.45;;
19207;SDS011;9737;59.466;18.036;2023-04-01T16:23:16;2.03;;;1.50;;
19207;SDS011;9737;59.466;18.036;2023-04-01T16:25:52;2.33;;;1.48;;
19207;SDS011;9737;59.466;18.036;2023-04-01T16:28:26;7.20;;;2.08;;
19207;SDS011;9737;59.466;18.036;2023-04-01T16:30:58;3.30;;;1.50;;
19207;SDS011;9737;59.466;18.036;2023-04-01T16:33:34;2.25;;;1.80;;
19207;SDS011;9737;59.466;18.036;2023-04-01T16:36:09;4.70;;;1.85;;
19207;SDS011;9737;59.466;18.036;2023-04-01T16:38:46;3.45;;;1.60;;
19207;SDS011;9737;59.466;18.036;2023-04-01T16:41:20;3.50;;;1.77;;
19207;SDS011;9737;59.466;18.036;2023-04-01T16:43:55;3.58;;;1.85;;
19207;SDS011;9737;59.466;18.036;2023-04-01T16:46:36;2.25;;;1.80;;
19207;SDS011;9737;59.466;18.036;2023-04-01T16:49:22;7.85;;;1.90;;
19207;SDS011;9737;59.466;18.036;2023-04-01T16:51:57;5.25;;;1.92;;
19207;SDS011;9737;59.466;18.036;2023-04-01T16:54:40;4.03;;;1.90;;